Brookville, Ohio
Current Conditions -  °F | °C
As of 2:56 AM on Sunday 21 Dec 2014 (Local Time) from KDAY Reporting Station
Haze Haze  
Wind Chill: 26°   Ceiling: 2400
Heat Index: 26°   Visibility: 5mi
Dew Point: 21°   Wind: 0mph
Humidity: 81%   Direction: NA
Pressure: 30.3"   Gusts: NA
Location:  39.84°N, 84.41°W
Report Text: KDAY 210756Z 00000KT 5SM HZ BKN024 M03/M06 A3030 RMK AO2 SLP271 T10331061
Loading
Personal Weather Stations






























Interactive Weather Map New forecast layout! Learn more

10-Day Weather Forecast

Advertisements
Track Severe Weather on mobile